createdAt,value
2022-08-30T00:02:22.306Z,99685.16
2022-08-30T00:04:54.168Z,99689.72
2022-08-30T00:07:21.592Z,99686.72
2022-08-30T00:09:48.902Z,99683.72
2022-08-30T00:12:16.360Z,99681.78
2022-08-30T00:14:43.640Z,99680.44
2022-08-30T00:17:10.918Z,99688.22
2022-08-30T00:19:38.552Z,99684.69
2022-08-30T00:22:07.325Z,99682.72
2022-08-30T00:24:34.640Z,99688.66
2022-08-30T00:27:02.099Z,99689.16
2022-08-30T00:29:30.167Z,99691.53
2022-08-30T00:31:57.316Z,99696.09
2022-08-30T00:34:24.746Z,99694.97
2022-08-30T00:36:51.894Z,99701.41
2022-08-30T00:39:19.030Z,99700.25
2022-08-30T00:41:46.763Z,99702.41
2022-08-30T00:44:14.010Z,99702.91
2022-08-30T00:46:41.322Z,99700.13
2022-08-30T00:49:12.833Z,99695.25
2022-08-30T00:51:41.821Z,99693.56
2022-08-30T00:54:09.402Z,99704.28
2022-08-30T00:56:37.279Z,99704.00
2022-08-30T00:59:07.753Z,99697.47
2022-08-30T01:01:37.466Z,99706.31
2022-08-30T01:04:09.323Z,99698.47
2022-08-30T01:06:37.402Z,99699.25
2022-08-30T01:09:05.779Z,99699.97
2022-08-30T01:11:37.923Z,99702.59
2022-08-30T01:14:06.910Z,99693.16
2022-08-30T01:16:37.412Z,99692.00
2022-08-30T01:19:17.463Z,99683.03
2022-08-30T01:22:03.037Z,99683.31
2022-08-30T01:24:31.566Z,99683.22
2022-08-30T01:26:59.294Z,99682.13
2022-08-30T01:29:27.598Z,99689.63
2022-08-30T01:31:54.794Z,99688.00
2022-08-30T01:34:22.517Z,99684.41
2022-08-30T01:36:50.540Z,99677.56
2022-08-30T01:39:19.071Z,99690.97
2022-08-30T01:41:47.182Z,99685.78
2022-08-30T01:44:15.350Z,99691.41
2022-08-30T01:46:47.530Z,99689.22
2022-08-30T01:49:27.652Z,99684.31
2022-08-30T01:52:00.481Z,99688.56
2022-08-30T01:54:36.911Z,99677.25
2022-08-30T01:57:09.979Z,99680.88
2022-08-30T01:59:40.641Z,99679.75
2022-08-30T02:02:08.522Z,99689.34
2022-08-30T02:04:36.735Z,99680.72
2022-08-30T02:07:05.211Z,99684.16
2022-08-30T02:09:32.461Z,99689.19
2022-08-30T02:11:59.694Z,99678.44
2022-08-30T02:14:27.641Z,99681.03
2022-08-30T02:16:55.004Z,99679.91
2022-08-30T02:19:22.085Z,99686.84
2022-08-30T02:21:50.066Z,99685.47
2022-08-30T02:24:17.233Z,99681.88
2022-08-30T02:26:44.918Z,99689.38
2022-08-30T02:29:12.743Z,99691.50
2022-08-30T02:31:39.996Z,99688.22
2022-08-30T02:34:08.012Z,99685.44
2022-08-30T02:36:36.732Z,99695.06
2022-08-30T02:39:04.088Z,99690.16
2022-08-30T02:41:31.449Z,99682.00
2022-08-30T02:44:00.327Z,99681.34
2022-08-30T02:46:33.294Z,99681.03
2022-08-30T02:49:29.890Z,99673.78
2022-08-30T02:51:50.760Z,99678.09
2022-08-30T02:54:19.782Z,99672.63
2022-08-30T02:56:48.487Z,99674.16
2022-08-30T02:59:18.134Z,99675.13
2022-08-30T03:01:45.859Z,99679.59
2022-08-30T03:04:13.049Z,99679.50
2022-08-30T03:06:40.354Z,99680.56
2022-08-30T03:09:07.763Z,99688.28
2022-08-30T03:11:35.589Z,99688.19
2022-08-30T03:14:02.774Z,99692.97
2022-08-30T03:16:30.495Z,99689.69
2022-08-30T03:18:57.653Z,99680.22
2022-08-30T03:21:24.834Z,99681.06
2022-08-30T03:23:52.386Z,99687.72
2022-08-30T03:26:19.457Z,99694.41
2022-08-30T03:28:46.547Z,99696.50
2022-08-30T03:31:14.110Z,99693.25
2022-08-30T03:33:41.918Z,99702.59
2022-08-30T03:36:10.676Z,99704.47
2022-08-30T03:38:39.187Z,99701.22
2022-08-30T03:41:06.523Z,99689.28
2022-08-30T03:43:35.284Z,99694.34
2022-08-30T03:46:04.252Z,99697.25
2022-08-30T03:48:31.889Z,99706.84
2022-08-30T03:50:59.008Z,99707.31
2022-08-30T03:53:27.291Z,99707.78
2022-08-30T03:55:55.484Z,99717.84
2022-08-30T03:58:24.826Z,99717.84
2022-08-30T04:00:52.507Z,99710.63
2022-08-30T04:03:25.693Z,99718.22
2022-08-30T04:05:55.068Z,99720.09
2022-08-30T04:08:24.472Z,99725.19
2022-08-30T04:10:53.374Z,99725.44
2022-08-30T04:13:22.728Z,99730.25
2022-08-30T04:15:51.015Z,99721.13
2022-08-30T04:18:18.288Z,99732.09
2022-08-30T04:20:45.480Z,99725.91
2022-08-30T04:23:13.545Z,99721.38
2022-08-30T04:25:41.862Z,99728.84
2022-08-30T04:28:10.172Z,99731.28
2022-08-30T04:30:45.573Z,99735.00
2022-08-30T04:33:14.972Z,99735.38
2022-08-30T04:35:46.749Z,99737.59
2022-08-30T04:38:14.964Z,99731.16
2022-08-30T04:40:48.522Z,99731.50
2022-08-30T04:43:16.820Z,99744.25
2022-08-30T04:45:44.259Z,99740.00
2022-08-30T04:48:11.627Z,99744.47
2022-08-30T04:50:39.639Z,99750.53
2022-08-30T04:53:15.091Z,99745.81
2022-08-30T04:55:44.251Z,99762.63
2022-08-30T04:58:12.093Z,99751.53
2022-08-30T05:00:42.157Z,99752.81
2022-08-30T05:03:10.051Z,99758.88
2022-08-30T05:05:39.745Z,99757.44
2022-08-30T05:08:13.570Z,99759.25
2022-08-30T05:10:44.929Z,99757.13
2022-08-30T05:13:13.437Z,99759.47
2022-08-30T05:15:40.807Z,99756.28
2022-08-30T05:18:11.374Z,99761.31
2022-08-30T05:20:42.723Z,99768.66
2022-08-30T05:23:11.179Z,99769.50
2022-08-30T05:25:41.597Z,99766.88
2022-08-30T05:28:09.505Z,99754.84
2022-08-30T05:30:38.257Z,99761.84
2022-08-30T05:33:05.672Z,99764.44
2022-08-30T05:35:32.849Z,99756.56
2022-08-30T05:38:00.841Z,99764.88
2022-08-30T05:40:29.247Z,99769.91
2022-08-30T05:42:56.564Z,99759.88
2022-08-30T05:45:24.159Z,99760.66
2022-08-30T05:47:51.235Z,99756.97
2022-08-30T05:50:18.557Z,99763.63
2022-08-30T05:52:46.067Z,99758.31
2022-08-30T05:55:13.481Z,99763.31
2022-08-30T05:57:42.021Z,99768.81
2022-08-30T06:00:15.437Z,99763.28
2022-08-30T06:02:43.231Z,99759.69
2022-08-30T06:05:14.345Z,99762.31
2022-08-30T06:07:43.427Z,99765.38
2022-08-30T06:10:12.407Z,99763.00
2022-08-30T06:12:41.502Z,99770.63
2022-08-30T06:15:09.361Z,99774.38
2022-08-30T06:17:36.770Z,99770.09
2022-08-30T06:20:04.939Z,99760.75
2022-08-30T06:22:32.134Z,99762.81
2022-08-30T06:24:59.212Z,99767.75
2022-08-30T06:27:26.597Z,99757.50
2022-08-30T06:29:53.834Z,99766.69
2022-08-30T06:32:21.054Z,99752.03
2022-08-30T06:34:49.357Z,99749.00
2022-08-30T06:37:21.931Z,99752.47
2022-08-30T06:39:59.389Z,99744.78
2022-08-30T06:42:34.943Z,99745.16
2022-08-30T06:45:11.291Z,99756.97
2022-08-30T06:47:40.681Z,99756.78
2022-08-30T06:50:11.883Z,99753.72
2022-08-30T06:52:43.063Z,99753.59
2022-08-30T06:55:16.380Z,99744.44
2022-08-30T06:57:44.849Z,99753.63
2022-08-30T07:00:16.483Z,99750.19
2022-08-30T07:02:43.860Z,99746.28
2022-08-30T07:05:15.389Z,99754.94
2022-08-30T07:07:44.308Z,99748.47
2022-08-30T07:10:11.548Z,99748.41
2022-08-30T07:12:38.747Z,99754.59
2022-08-30T07:15:07.861Z,99754.97
2022-08-30T07:17:53.946Z,99756.16
2022-08-30T07:20:21.601Z,99752.63
2022-08-30T07:22:49.037Z,99752.28
2022-08-30T07:25:16.638Z,99758.25
2022-08-30T07:27:47.629Z,99756.19
2022-08-30T07:30:14.948Z,99761.16
2022-08-30T07:32:42.150Z,99761.16
2022-08-30T07:35:10.220Z,99757.50
2022-08-30T07:37:37.472Z,99757.84
2022-08-30T07:40:06.395Z,99753.63
2022-08-30T07:42:34.078Z,99749.63
2022-08-30T07:45:03.298Z,99740.34
2022-08-30T07:47:30.579Z,99746.03
2022-08-30T07:50:00.743Z,99735.53
2022-08-30T07:52:30.728Z,99738.25
2022-08-30T07:55:00.145Z,99746.44
2022-08-30T07:57:31.559Z,99743.31
2022-08-30T07:59:59.008Z,99747.06
2022-08-30T08:02:27.060Z,99743.19
2022-08-30T08:04:54.601Z,99742.38
2022-08-30T08:07:21.789Z,99750.47
2022-08-30T08:09:49.788Z,99746.03
2022-08-30T08:12:17.081Z,99743.03
2022-08-30T08:14:44.470Z,99747.88
2022-08-30T08:17:12.554Z,99740.59
2022-08-30T08:19:39.802Z,99760.16
2022-08-30T08:22:20.684Z,99751.22
2022-08-30T08:24:49.777Z,99751.38
2022-08-30T08:27:17.546Z,99749.25
2022-08-30T08:29:47.451Z,99756.16
2022-08-30T08:32:15.702Z,99751.13
2022-08-30T08:34:42.809Z,99752.97
2022-08-30T08:37:09.962Z,99755.34
2022-08-30T08:39:37.499Z,99751.78
2022-08-30T08:42:18.699Z,99762.66
2022-08-30T08:44:59.669Z,99761.00
2022-08-30T08:47:53.776Z,99742.09
2022-08-30T08:50:32.944Z,99748.59
2022-08-30T08:53:45.955Z,99748.78
2022-08-30T08:56:18.612Z,99743.63
2022-08-30T08:58:54.492Z,99743.81
2022-08-30T09:01:28.707Z,99743.00
2022-08-30T09:03:59.465Z,99747.25
2022-08-30T09:07:05.599Z,99753.03
2022-08-30T09:09:39.526Z,99743.81
2022-08-30T09:12:12.402Z,99746.13
2022-08-30T09:14:55.391Z,99738.31
2022-08-30T09:17:23.969Z,99736.25
2022-08-30T09:20:00.385Z,99737.69
2022-08-30T09:22:39.699Z,99733.19
2022-08-30T09:25:12.530Z,99731.66
2022-08-30T09:27:44.778Z,99728.31
2022-08-30T09:30:35.303Z,99724.31
2022-08-30T09:33:20.514Z,99719.00
2022-08-30T09:35:52.203Z,99722.56
2022-08-30T09:38:35.037Z,99721.94
2022-08-30T09:41:43.516Z,99715.94
2022-08-30T09:44:19.338Z,99730.47
2022-08-30T09:46:53.131Z,99725.84
2022-08-30T09:49:34.282Z,99721.53
2022-08-30T09:52:29.374Z,99704.78
2022-08-30T09:55:34.566Z,99710.94
2022-08-30T09:58:42.278Z,99706.34
2022-08-30T10:02:45.005Z,99710.59
2022-08-30T10:05:21.604Z,99699.69
2022-08-30T10:08:12.971Z,99700.59
2022-08-30T10:10:59.379Z,99700.84
2022-08-30T10:14:05.914Z,99701.41
2022-08-30T10:16:53.400Z,99707.09
2022-08-30T10:19:40.039Z,99697.66
2022-08-30T10:22:34.315Z,99703.97
2022-08-30T10:25:19.547Z,99700.88
2022-08-30T10:28:08.676Z,99691.28
2022-08-30T10:30:44.203Z,99698.91
2022-08-30T10:33:22.923Z,99688.41
2022-08-30T10:36:02.444Z,99687.28
2022-08-30T10:38:37.807Z,99687.06
2022-08-30T10:41:39.985Z,99678.31
2022-08-30T10:44:26.487Z,99664.56
2022-08-30T10:47:42.130Z,99667.91
2022-08-30T10:50:24.300Z,99671.72
2022-08-30T10:53:03.562Z,99655.94
2022-08-30T10:55:37.504Z,99662.34
2022-08-30T10:58:06.584Z,99673.09
2022-08-30T11:00:41.889Z,99659.63
2022-08-30T11:03:49.644Z,99672.81
2022-08-30T11:06:54.041Z,99655.59
2022-08-30T11:09:38.087Z,99670.28
2022-08-30T11:12:49.506Z,99665.59
2022-08-30T11:15:25.554Z,99655.56
2022-08-30T11:18:05.127Z,99653.66
2022-08-30T11:20:45.136Z,99660.59
2022-08-30T11:23:33.274Z,99652.97
2022-08-30T11:26:16.969Z,99654.59
2022-08-30T11:28:48.287Z,99656.34
2022-08-30T11:31:18.815Z,99659.81
2022-08-30T11:33:53.219Z,99649.22
2022-08-30T11:36:37.304Z,99654.03
2022-08-30T11:39:11.875Z,99650.72
2022-08-30T11:41:48.015Z,99655.97
2022-08-30T11:44:21.683Z,99652.63
2022-08-30T11:46:55.002Z,99645.81
2022-08-30T11:49:23.459Z,99647.78
2022-08-30T11:52:26.597Z,99636.78
2022-08-30T11:55:25.671Z,99631.50
2022-08-30T11:58:12.201Z,99629.91
2022-08-30T12:00:51.522Z,99623.34
2022-08-30T12:03:33.901Z,99612.59
2022-08-30T12:06:09.625Z,99611.53
2022-08-30T12:08:47.730Z,99611.50
2022-08-30T12:12:00.409Z,99602.13
2022-08-30T12:14:47.732Z,99595.81
2022-08-30T12:17:46.230Z,99589.34
2022-08-30T12:20:22.558Z,99595.75
2022-08-30T12:22:53.512Z,99585.34
2022-08-30T12:25:35.063Z,99594.63
2022-08-30T12:28:25.129Z,99580.97
2022-08-30T12:30:54.209Z,99584.31
2022-08-30T12:33:36.645Z,99573.88
2022-08-30T12:36:33.361Z,99581.94
2022-08-30T12:39:18.215Z,99573.75
2022-08-30T12:41:46.616Z,99566.81
2022-08-30T12:44:24.179Z,99564.47
2022-08-30T12:47:03.025Z,99558.84
2022-08-30T12:49:36.554Z,99557.66
2022-08-30T12:52:35.561Z,99558.00
2022-08-30T12:55:19.600Z,99550.44
2022-08-30T12:58:11.181Z,99551.88
2022-08-30T13:00:43.042Z,99554.56
2022-08-30T13:03:36.796Z,99559.34
2022-08-30T13:06:08.238Z,99555.38
2022-08-30T13:08:51.024Z,99557.19
2022-08-30T13:11:21.817Z,99559.81
2022-08-30T13:13:58.317Z,99552.03
2022-08-30T13:16:37.116Z,99557.88
2022-08-30T13:19:36.712Z,99552.22
2022-08-30T13:22:05.448Z,99550.63
2022-08-30T13:24:34.019Z,99546.47
2022-08-30T13:27:09.925Z,99546.38
2022-08-30T13:29:38.222Z,99549.00
2022-08-30T13:32:05.669Z,99546.53
2022-08-30T13:40:17.406Z,99534.13
2022-08-30T13:42:45.789Z,99537.88
2022-08-30T13:48:06.563Z,99535.78
2022-08-30T13:50:33.945Z,99539.38
2022-08-30T13:53:01.301Z,99539.91
2022-08-30T13:55:29.080Z,99531.84
2022-08-30T13:57:57.579Z,99533.69
2022-08-30T14:00:27.375Z,99527.59
2022-08-30T14:02:57.657Z,99526.16
2022-08-30T14:06:15.920Z,99528.91
2022-08-30T14:08:48.072Z,99529.94
2022-08-30T14:11:20.868Z,99525.50
2022-08-30T14:16:42.578Z,99511.44
2022-08-30T14:19:12.991Z,99515.53
2022-08-30T14:21:40.648Z,99517.84
2022-08-30T14:24:08.593Z,99509.53
2022-08-30T14:26:43.900Z,99505.13
2022-08-30T14:29:17.679Z,99509.41
2022-08-30T14:31:45.763Z,99505.38
2022-08-30T14:34:15.308Z,99512.63
2022-08-30T14:36:46.082Z,99510.75
2022-08-30T14:39:18.359Z,99512.09
2022-08-30T14:41:50.901Z,99515.81
2022-08-30T14:44:21.393Z,99507.59
2022-08-30T14:46:49.497Z,99514.78
2022-08-30T14:49:20.097Z,99510.25
2022-08-30T14:51:48.652Z,99506.81
2022-08-30T14:54:21.445Z,99506.97
2022-08-30T14:56:49.296Z,99510.31
2022-08-30T14:59:16.863Z,99511.28
2022-08-30T15:01:44.526Z,99514.53
2022-08-30T15:04:15.188Z,99509.50
2022-08-30T15:06:47.960Z,99505.28
2022-08-30T15:09:23.537Z,99510.47
2022-08-30T15:11:54.923Z,99499.91
2022-08-30T15:14:23.992Z,99501.97
2022-08-30T15:16:55.289Z,99505.66
2022-08-30T15:19:22.896Z,99502.22
2022-08-30T15:21:51.555Z,99498.56
2022-08-30T15:24:25.005Z,99498.09
2022-08-30T15:27:00.411Z,99502.00
2022-08-30T15:29:31.509Z,99507.50
2022-08-30T15:32:02.523Z,99499.56
2022-08-30T15:34:31.562Z,99491.66
2022-08-30T15:36:58.916Z,99497.19
2022-08-30T15:39:27.270Z,99498.81
2022-08-30T15:41:58.446Z,99494.88
2022-08-30T15:44:31.435Z,99499.56
2022-08-30T15:46:59.476Z,99499.03
2022-08-30T15:49:26.598Z,99492.13
2022-08-30T15:51:54.661Z,99491.19
2022-08-30T15:54:23.883Z,99487.53
2022-08-30T15:56:59.470Z,99497.16
2022-08-30T15:59:29.639Z,99491.06
2022-08-30T16:02:06.402Z,99487.88
2022-08-30T16:04:34.471Z,99477.00
2022-08-30T16:07:01.686Z,99479.03
2022-08-30T16:09:30.204Z,99485.03
2022-08-30T16:12:02.114Z,99475.38
2022-08-30T16:14:30.545Z,99474.47
2022-08-30T16:16:58.150Z,99474.34
2022-08-30T16:19:26.786Z,99475.84
2022-08-30T16:21:54.086Z,99482.72
2022-08-30T16:24:23.471Z,99480.84
2022-08-30T16:26:51.247Z,99472.59
2022-08-30T16:29:18.881Z,99473.03
2022-08-30T16:31:48.166Z,99471.97
2022-08-30T16:34:20.238Z,99484.22
2022-08-30T16:36:48.018Z,99480.06
2022-08-30T16:39:16.108Z,99476.84
2022-08-30T16:41:45.430Z,99470.41
2022-08-30T16:44:15.912Z,99478.66
2022-08-30T16:46:52.486Z,99488.38
2022-08-30T16:49:25.559Z,99485.50
2022-08-30T16:51:54.097Z,99492.84
2022-08-30T16:54:22.704Z,99483.06
2022-08-30T16:56:50.311Z,99487.50
2022-08-30T16:59:17.872Z,99487.91
2022-08-30T17:01:46.549Z,99498.63
2022-08-30T17:04:18.469Z,99502.25
2022-08-30T17:06:49.752Z,99497.13
2022-08-30T17:09:19.126Z,99502.34
2022-08-30T17:11:46.922Z,99504.66
2022-08-30T17:14:19.958Z,99509.97
2022-08-30T17:16:57.454Z,99519.56
2022-08-30T17:19:26.982Z,99517.47
2022-08-30T17:21:58.060Z,99517.84
2022-08-30T17:24:26.815Z,99517.88
2022-08-30T17:26:54.547Z,99526.31
2022-08-30T17:29:22.255Z,99527.63
2022-08-30T17:31:51.193Z,99531.66
2022-08-30T17:34:22.887Z,99538.00
2022-08-30T17:36:54.791Z,99538.94
2022-08-30T17:39:23.466Z,99542.50
2022-08-30T17:41:51.539Z,99549.94
2022-08-30T17:44:25.821Z,99551.06
2022-08-30T17:46:55.316Z,99546.72
2022-08-30T17:49:25.003Z,99553.34
2022-08-30T17:51:56.621Z,99557.69
2022-08-30T17:54:26.834Z,99562.81
2022-08-30T17:56:55.704Z,99566.31
2022-08-30T17:59:25.175Z,99569.38
2022-08-30T18:02:14.707Z,99573.22
2022-08-30T18:04:43.402Z,99575.44
2022-08-30T18:07:12.998Z,99577.50
2022-08-30T18:09:42.985Z,99580.69
2022-08-30T18:12:12.688Z,99577.63
2022-08-30T18:14:42.633Z,99579.97
2022-08-30T18:17:10.229Z,99586.69
2022-08-30T18:19:45.846Z,99590.38
2022-08-30T18:22:16.151Z,99590.84
2022-08-30T18:24:44.486Z,99597.56
2022-08-30T18:27:12.011Z,99604.28
2022-08-30T18:29:41.314Z,99610.19
2022-08-30T18:32:09.194Z,99612.28
2022-08-30T18:34:36.454Z,99608.03
2022-08-30T18:37:05.412Z,99609.28
2022-08-30T18:39:38.714Z,99616.00
2022-08-30T18:42:09.805Z,99614.78
2022-08-30T18:44:37.295Z,99616.81
2022-08-30T18:47:06.671Z,99621.91
2022-08-30T18:49:36.803Z,99629.72
2022-08-30T18:52:09.702Z,99626.63
2022-08-30T18:54:42.173Z,99621.88
2022-08-30T18:57:10.009Z,99625.38
2022-08-30T18:59:39.061Z,99629.91
2022-08-30T19:02:14.281Z,99626.28
2022-08-30T19:04:43.494Z,99621.03
2022-08-30T19:07:15.561Z,99626.41
2022-08-30T19:09:45.278Z,99625.78
2022-08-30T19:12:13.238Z,99617.22
2022-08-30T19:14:40.796Z,99627.09
2022-08-30T19:17:08.482Z,99618.22
2022-08-30T19:19:47.459Z,99622.38
2022-08-30T19:22:19.244Z,99620.84
2022-08-30T19:24:49.633Z,99620.66
2022-08-30T19:27:37.374Z,99621.03
2022-08-30T19:30:21.629Z,99630.13
2022-08-30T19:32:53.229Z,99626.66
2022-08-30T19:35:30.429Z,99618.53
2022-08-30T19:37:59.738Z,99621.38
2022-08-30T19:40:27.681Z,99632.09
2022-08-30T19:42:55.348Z,99641.44
2022-08-30T19:45:24.228Z,99638.31
2022-08-30T19:47:53.184Z,99634.84
2022-08-30T19:50:22.346Z,99642.00
2022-08-30T19:52:54.658Z,99642.69
2022-08-30T19:55:30.023Z,99641.16
2022-08-30T19:57:59.098Z,99642.84
2022-08-30T20:00:27.278Z,99638.91
2022-08-30T20:02:58.819Z,99647.44
2022-08-30T20:05:28.013Z,99640.75
2022-08-30T20:07:55.169Z,99645.44
2022-08-30T20:10:26.582Z,99646.09
2022-08-30T20:12:54.905Z,99642.44
2022-08-30T20:15:23.026Z,99645.22
2022-08-30T20:18:05.035Z,99638.72
2022-08-30T20:20:36.509Z,99639.91
2022-08-30T20:23:30.306Z,99634.03
2022-08-30T20:26:04.883Z,99639.53
2022-08-30T20:28:32.453Z,99641.19
2022-08-30T20:31:00.339Z,99637.44
2022-08-30T20:33:28.487Z,99634.78
2022-08-30T20:36:02.277Z,99639.47
2022-08-30T20:38:32.125Z,99634.41
2022-08-30T20:41:02.627Z,99639.88
2022-08-30T20:43:31.650Z,99638.53
2022-08-30T20:45:59.803Z,99641.31
2022-08-30T20:48:28.900Z,99639.47
2022-08-30T20:50:56.395Z,99635.19
2022-08-30T20:53:24.360Z,99638.25
2022-08-30T20:55:51.622Z,99636.97
2022-08-30T20:58:18.918Z,99645.19
2022-08-30T21:00:54.817Z,99645.22
2022-08-30T21:03:26.289Z,99638.50
2022-08-30T21:05:56.819Z,99645.88
2022-08-30T21:08:24.975Z,99649.78
2022-08-30T21:10:52.997Z,99648.19
2022-08-30T21:13:21.154Z,99646.31
2022-08-30T21:16:00.384Z,99649.91
2022-08-30T21:18:32.897Z,99652.06
2022-08-30T21:21:12.853Z,99649.94
2022-08-30T21:23:40.674Z,99655.94
2022-08-30T21:26:10.073Z,99654.91
2022-08-30T21:28:37.589Z,99653.84
2022-08-30T21:31:12.753Z,99668.56
2022-08-30T21:33:41.555Z,99659.09
2022-08-30T21:36:29.010Z,99659.13
2022-08-30T21:39:00.858Z,99657.56
2022-08-30T21:41:31.602Z,99663.28
2022-08-30T21:44:04.857Z,99666.03
2022-08-30T21:46:36.130Z,99666.34
2022-08-30T21:49:08.553Z,99661.25
2022-08-30T21:51:44.807Z,99670.50
2022-08-30T21:54:15.130Z,99665.63
2022-08-30T21:56:48.180Z,99670.53
2022-08-30T21:59:16.682Z,99664.88
2022-08-30T22:01:44.678Z,99670.56
2022-08-30T22:04:14.100Z,99661.34
2022-08-30T22:06:48.200Z,99665.72
2022-08-30T22:09:20.732Z,99659.78
2022-08-30T22:11:49.098Z,99665.75
2022-08-30T22:14:19.986Z,99660.59
2022-08-30T22:16:48.893Z,99658.19
2022-08-30T22:19:22.405Z,99657.13
2022-08-30T22:21:53.884Z,99655.78
2022-08-30T22:24:32.418Z,99657.69
2022-08-30T22:27:05.101Z,99655.00
2022-08-30T22:29:33.305Z,99650.94
2022-08-30T22:32:01.674Z,99652.84
2022-08-30T22:34:32.265Z,99652.31
2022-08-30T22:37:00.335Z,99655.03
2022-08-30T22:39:28.136Z,99658.81
2022-08-30T22:41:55.959Z,99659.38
2022-08-30T22:44:23.227Z,99657.19
2022-08-30T22:46:50.527Z,99661.84
2022-08-30T22:49:18.223Z,99654.25
2022-08-30T22:51:45.657Z,99657.19
2022-08-30T22:54:13.034Z,99652.06
2022-08-30T22:56:41.394Z,99661.56
2022-08-30T22:59:09.261Z,99671.84
2022-08-30T23:01:42.853Z,99669.41
2022-08-30T23:04:12.881Z,99672.91
2022-08-30T23:06:41.522Z,99672.94
2022-08-30T23:09:17.998Z,99675.63
2022-08-30T23:11:45.233Z,99669.13
2022-08-30T23:14:12.439Z,99670.47
2022-08-30T23:16:40.754Z,99663.97
2022-08-30T23:19:08.268Z,99671.25
2022-08-30T23:21:35.675Z,99669.09
2022-08-30T23:24:27.460Z,99665.31
2022-08-30T23:27:13.451Z,99663.41
2022-08-30T23:29:59.879Z,99660.66
2022-08-30T23:32:46.755Z,99660.09
2022-08-30T23:35:33.377Z,99664.16
2022-08-30T23:38:23.911Z,99662.53
2022-08-30T23:41:11.120Z,99662.81
2022-08-30T23:43:58.040Z,99658.97
2022-08-30T23:46:54.493Z,99659.53
2022-08-30T23:49:41.151Z,99660.06
2022-08-30T23:52:27.517Z,99651.66
2022-08-30T23:55:13.577Z,99655.97
2022-08-30T23:58:00.569Z,99657.03
